首页
METAR-TAF:

METAR-TAF

机场 :

Tallahassee Regional Airport

塔拉哈西, 佛罗里达州, 美国

纬度: 30-23-35N, 经度: 084-21-12W, 海拔: 24米

当前天气观测

该预报发布于1小时和5分钟前的14:53 UTC
风速5节,风向
温度 28°C
湿度 66%
气压 1018 hPa
能見度: 16.1公里
多云层高于2300英尺
多云层高于9000英尺
多云层高于25000英尺

METAR: KTLH 051453Z 18005KT 10SM BKN023 BKN090 BKN250 28/21 A3005 RMK AO2 SLP174 T02780211 51012 $

时间: 11:58 (15:58 UTC)

预报

该预报发布于4小时和27分钟前的11:31 UTC
预报有效从05日的 12点(UTC)到 06日的 12点(UTC)
风速3节,风向
能見度: 10公里
多云层高于4000英尺
从 05日的 1400点(UTC)
风速6节,风向
能見度: 10公里
多云层高于4000英尺
附近有阵雨
从 05日的 1600点(UTC)
风速5节,风向南转西南
能見度: 10公里
多云层高于5000英尺, 积雨云.
雷暴, 雨
从 05日的 2200点(UTC)
风速4节,风向南转南东
能見度: 10公里
阴天层高于5000英尺

TAF: KTLH 051131Z 0512/0612 18003KT P6SM BKN040 FM051400 19006KT P6SM VCSH BKN040 FM051600 20005KT P6SM TSRA BKN050CB FM052200 15004KT P6SM OVC050

超过4000个机场的气象观测和天气预报(METAR&TAF报告)。

可查询的气象台以黄色和红色小点在地图上表示。

将鼠标移到小点上方,可查看气象台名称。

然后点击查看天气观测和预报。

如需切换地图:点击带黑十字的绿色按钮放大地图;点击带横线的绿色按钮缩小地图;或者点击绿色箭头查看邻近地区的地图。


METAR-TAF: